sensor_id;sensor_type;location;lat;lon;timestamp;P1;durP1;ratioP1;P2;durP2;ratioP2
71655;SDS011;59497;48.798;8.816;2022-10-23T00:00:07;4.05;;;2.05;;
71655;SDS011;59497;48.798;8.816;2022-10-23T00:02:32;6.87;;;2.30;;
71655;SDS011;59497;48.798;8.816;2022-10-23T00:05:00;6.40;;;2.33;;
71655;SDS011;59497;48.798;8.816;2022-10-23T00:07:25;4.63;;;2.22;;
71655;SDS011;59497;48.798;8.816;2022-10-23T00:09:50;5.57;;;2.50;;
71655;SDS011;59497;48.798;8.816;2022-10-23T00:12:16;4.50;;;2.53;;
71655;SDS011;59497;48.798;8.816;2022-10-23T00:14:41;7.83;;;2.67;;
71655;SDS011;59497;48.798;8.816;2022-10-23T00:17:06;6.03;;;2.73;;
71655;SDS011;59497;48.798;8.816;2022-10-23T00:19:31;6.47;;;2.67;;
71655;SDS011;59497;48.798;8.816;2022-10-23T00:21:56;4.72;;;2.65;;
71655;SDS011;59497;48.798;8.816;2022-10-23T00:24:21;5.55;;;2.83;;
71655;SDS011;59497;48.798;8.816;2022-10-23T00:26:48;5.07;;;2.80;;
71655;SDS011;59497;48.798;8.816;2022-10-23T00:29:13;5.22;;;2.95;;
71655;SDS011;59497;48.798;8.816;2022-10-23T00:31:38;4.50;;;2.85;;
71655;SDS011;59497;48.798;8.816;2022-10-23T00:34:03;6.63;;;2.43;;
71655;SDS011;59497;48.798;8.816;2022-10-23T00:36:32;8.50;;;3.05;;
71655;SDS011;59497;48.798;8.816;2022-10-23T00:38:57;5.23;;;2.90;;
71655;SDS011;59497;48.798;8.816;2022-10-23T00:41:23;4.78;;;2.10;;
71655;SDS011;59497;48.798;8.816;2022-10-23T00:46:20;5.43;;;3.20;;
71655;SDS011;59497;48.798;8.816;2022-10-23T00:48:45;6.00;;;2.53;;
71655;SDS011;59497;48.798;8.816;2022-10-23T00:51:10;3.90;;;2.20;;
71655;SDS011;59497;48.798;8.816;2022-10-23T00:53:35;6.53;;;2.83;;
71655;SDS011;59497;48.798;8.816;2022-10-23T00:56:01;6.70;;;2.60;;
71655;SDS011;59497;48.798;8.816;2022-10-23T00:58:27;3.80;;;2.47;;
71655;SDS011;59497;48.798;8.816;2022-10-23T01:00:53;3.00;;;2.10;;
71655;SDS011;59497;48.798;8.816;2022-10-23T01:03:19;5.40;;;2.47;;
71655;SDS011;59497;48.798;8.816;2022-10-23T01:11:28;3.85;;;2.22;;
71655;SDS011;59497;48.798;8.816;2022-10-23T01:16:21;3.00;;;2.27;;
71655;SDS011;59497;48.798;8.816;2022-10-23T01:18:58;3.63;;;2.63;;
71655;SDS011;59497;48.798;8.816;2022-10-23T01:29:20;4.85;;;2.58;;
71655;SDS011;59497;48.798;8.816;2022-10-23T01:31:49;5.15;;;2.65;;
71655;SDS011;59497;48.798;8.816;2022-10-23T01:34:17;4.90;;;2.40;;
71655;SDS011;59497;48.798;8.816;2022-10-23T01:36:46;4.70;;;2.10;;
71655;SDS011;59497;48.798;8.816;2022-10-23T01:39:14;6.70;;;2.88;;
71655;SDS011;59497;48.798;8.816;2022-10-23T01:44:06;3.60;;;2.30;;
71655;SDS011;59497;48.798;8.816;2022-10-23T01:46:33;4.77;;;2.73;;
71655;SDS011;59497;48.798;8.816;2022-10-23T01:48:59;4.97;;;2.40;;
71655;SDS011;59497;48.798;8.816;2022-10-23T01:51:26;6.05;;;2.42;;
71655;SDS011;59497;48.798;8.816;2022-10-23T01:53:54;5.97;;;2.45;;
71655;SDS011;59497;48.798;8.816;2022-10-23T01:56:25;10.52;;;2.97;;
71655;SDS011;59497;48.798;8.816;2022-10-23T01:58:52;4.57;;;2.43;;
71655;SDS011;59497;48.798;8.816;2022-10-23T02:01:18;4.03;;;2.40;;
71655;SDS011;59497;48.798;8.816;2022-10-23T02:03:44;3.13;;;2.05;;
71655;SDS011;59497;48.798;8.816;2022-10-23T02:06:10;7.75;;;2.75;;
71655;SDS011;59497;48.798;8.816;2022-10-23T02:08:35;4.63;;;2.53;;
71655;SDS011;59497;48.798;8.816;2022-10-23T02:11:08;5.73;;;2.53;;
71655;SDS011;59497;48.798;8.816;2022-10-23T02:21:21;8.65;;;3.00;;
71655;SDS011;59497;48.798;8.816;2022-10-23T02:24:01;7.65;;;2.60;;
71655;SDS011;59497;48.798;8.816;2022-10-23T02:26:33;5.03;;;2.67;;
71655;SDS011;59497;48.798;8.816;2022-10-23T02:29:07;5.72;;;2.63;;
71655;SDS011;59497;48.798;8.816;2022-10-23T02:31:33;6.70;;;2.80;;
71655;SDS011;59497;48.798;8.816;2022-10-23T02:33:58;4.90;;;2.53;;
71655;SDS011;59497;48.798;8.816;2022-10-23T02:36:23;5.43;;;2.40;;
71655;SDS011;59497;48.798;8.816;2022-10-23T02:38:48;5.10;;;2.40;;
71655;SDS011;59497;48.798;8.816;2022-10-23T02:48:42;5.63;;;2.58;;
71655;SDS011;59497;48.798;8.816;2022-10-23T02:51:10;4.93;;;2.42;;
71655;SDS011;59497;48.798;8.816;2022-10-23T03:01:36;5.88;;;2.55;;
71655;SDS011;59497;48.798;8.816;2022-10-23T03:04:02;3.65;;;2.40;;
71655;SDS011;59497;48.798;8.816;2022-10-23T03:06:29;3.00;;;2.30;;
71655;SDS011;59497;48.798;8.816;2022-10-23T03:09:02;4.13;;;2.20;;
71655;SDS011;59497;48.798;8.816;2022-10-23T03:11:27;6.30;;;2.30;;
71655;SDS011;59497;48.798;8.816;2022-10-23T03:13:53;5.13;;;2.40;;
71655;SDS011;59497;48.798;8.816;2022-10-23T03:16:18;4.60;;;1.98;;
71655;SDS011;59497;48.798;8.816;2022-10-23T03:18:43;3.33;;;2.30;;
71655;SDS011;59497;48.798;8.816;2022-10-23T03:21:08;4.55;;;2.22;;
71655;SDS011;59497;48.798;8.816;2022-10-23T03:23:33;3.70;;;2.10;;
71655;SDS011;59497;48.798;8.816;2022-10-23T03:25:59;8.23;;;2.30;;
71655;SDS011;59497;48.798;8.816;2022-10-23T03:28:24;4.60;;;2.10;;
71655;SDS011;59497;48.798;8.816;2022-10-23T03:30:49;4.00;;;2.03;;
71655;SDS011;59497;48.798;8.816;2022-10-23T03:33:14;4.53;;;2.17;;
71655;SDS011;59497;48.798;8.816;2022-10-23T03:35:39;5.47;;;2.30;;
71655;SDS011;59497;48.798;8.816;2022-10-23T03:38:05;3.60;;;2.10;;
71655;SDS011;59497;48.798;8.816;2022-10-23T03:40:30;4.67;;;2.43;;
71655;SDS011;59497;48.798;8.816;2022-10-23T03:42:55;7.53;;;2.40;;
71655;SDS011;59497;48.798;8.816;2022-10-23T03:45:20;3.80;;;1.93;;
71655;SDS011;59497;48.798;8.816;2022-10-23T03:47:45;2.75;;;1.83;;
71655;SDS011;59497;48.798;8.816;2022-10-23T03:50:11;5.00;;;2.20;;
71655;SDS011;59497;48.798;8.816;2022-10-23T03:52:37;4.28;;;2.17;;
71655;SDS011;59497;48.798;8.816;2022-10-23T03:55:02;8.80;;;2.10;;
71655;SDS011;59497;48.798;8.816;2022-10-23T03:57:28;3.23;;;1.90;;
71655;SDS011;59497;48.798;8.816;2022-10-23T03:59:53;3.80;;;1.90;;
71655;SDS011;59497;48.798;8.816;2022-10-23T04:02:18;3.30;;;2.10;;
71655;SDS011;59497;48.798;8.816;2022-10-23T04:04:43;3.73;;;2.10;;
71655;SDS011;59497;48.798;8.816;2022-10-23T04:07:08;4.20;;;1.87;;
71655;SDS011;59497;48.798;8.816;2022-10-23T04:09:34;4.40;;;2.03;;
71655;SDS011;59497;48.798;8.816;2022-10-23T04:11:59;3.17;;;2.00;;
71655;SDS011;59497;48.798;8.816;2022-10-23T04:14:24;4.40;;;2.30;;
71655;SDS011;59497;48.798;8.816;2022-10-23T04:16:49;4.13;;;2.03;;
71655;SDS011;59497;48.798;8.816;2022-10-23T04:19:14;6.78;;;2.30;;
71655;SDS011;59497;48.798;8.816;2022-10-23T04:21:41;3.92;;;2.33;;
71655;SDS011;59497;48.798;8.816;2022-10-23T04:24:06;3.30;;;2.40;;
71655;SDS011;59497;48.798;8.816;2022-10-23T04:26:31;3.70;;;2.10;;
71655;SDS011;59497;48.798;8.816;2022-10-23T04:28:56;3.13;;;1.90;;
71655;SDS011;59497;48.798;8.816;2022-10-23T04:31:21;3.33;;;2.63;;
71655;SDS011;59497;48.798;8.816;2022-10-23T04:33:46;4.55;;;2.05;;
71655;SDS011;59497;48.798;8.816;2022-10-23T04:36:12;4.37;;;2.27;;
71655;SDS011;59497;48.798;8.816;2022-10-23T04:38:37;4.43;;;2.43;;
71655;SDS011;59497;48.798;8.816;2022-10-23T04:41:02;3.63;;;2.40;;
71655;SDS011;59497;48.798;8.816;2022-10-23T04:43:27;3.27;;;1.93;;
71655;SDS011;59497;48.798;8.816;2022-10-23T04:45:52;4.87;;;1.90;;
71655;SDS011;59497;48.798;8.816;2022-10-23T04:48:17;3.07;;;1.70;;
71655;SDS011;59497;48.798;8.816;2022-10-23T04:50:43;4.73;;;2.13;;
71655;SDS011;59497;48.798;8.816;2022-10-23T04:53:08;4.47;;;1.97;;
71655;SDS011;59497;48.798;8.816;2022-10-23T04:55:33;3.33;;;2.13;;
71655;SDS011;59497;48.798;8.816;2022-10-23T04:57:58;3.60;;;2.50;;
71655;SDS011;59497;48.798;8.816;2022-10-23T05:00:24;4.80;;;2.30;;
71655;SDS011;59497;48.798;8.816;2022-10-23T05:02:49;3.60;;;1.90;;
71655;SDS011;59497;48.798;8.816;2022-10-23T05:05:14;4.63;;;2.20;;
71655;SDS011;59497;48.798;8.816;2022-10-23T05:07:39;4.60;;;1.90;;
71655;SDS011;59497;48.798;8.816;2022-10-23T05:10:04;3.73;;;1.90;;
71655;SDS011;59497;48.798;8.816;2022-10-23T05:12:30;2.13;;;1.80;;
71655;SDS011;59497;48.798;8.816;2022-10-23T05:14:55;4.23;;;1.80;;
71655;SDS011;59497;48.798;8.816;2022-10-23T05:17:28;5.70;;;2.00;;
71655;SDS011;59497;48.798;8.816;2022-10-23T05:19:55;3.90;;;2.00;;
71655;SDS011;59497;48.798;8.816;2022-10-23T05:22:21;4.22;;;1.98;;
71655;SDS011;59497;48.798;8.816;2022-10-23T05:24:48;3.35;;;2.00;;
71655;SDS011;59497;48.798;8.816;2022-10-23T05:27:14;4.32;;;1.85;;
71655;SDS011;59497;48.798;8.816;2022-10-23T05:29:39;4.65;;;1.80;;
71655;SDS011;59497;48.798;8.816;2022-10-23T05:32:04;2.25;;;1.35;;
71655;SDS011;59497;48.798;8.816;2022-10-23T05:34:31;6.63;;;2.37;;
71655;SDS011;59497;48.798;8.816;2022-10-23T05:36:57;3.47;;;1.60;;
71655;SDS011;59497;48.798;8.816;2022-10-23T05:39:22;4.17;;;1.93;;
71655;SDS011;59497;48.798;8.816;2022-10-23T05:41:47;3.77;;;1.97;;
71655;SDS011;59497;48.798;8.816;2022-10-23T05:44:12;2.50;;;1.63;;
71655;SDS011;59497;48.798;8.816;2022-10-23T05:46:41;3.13;;;1.93;;
71655;SDS011;59497;48.798;8.816;2022-10-23T05:49:06;3.90;;;2.00;;
71655;SDS011;59497;48.798;8.816;2022-10-23T05:51:34;5.20;;;1.80;;
71655;SDS011;59497;48.798;8.816;2022-10-23T05:53:59;4.10;;;2.05;;
71655;SDS011;59497;48.798;8.816;2022-10-23T05:56:24;3.38;;;2.15;;
71655;SDS011;59497;48.798;8.816;2022-10-23T05:58:50;2.97;;;1.83;;
71655;SDS011;59497;48.798;8.816;2022-10-23T06:01:15;3.35;;;1.80;;
71655;SDS011;59497;48.798;8.816;2022-10-23T06:03:41;3.03;;;1.77;;
71655;SDS011;59497;48.798;8.816;2022-10-23T06:06:07;1.60;;;1.13;;
71655;SDS011;59497;48.798;8.816;2022-10-23T06:08:32;3.43;;;1.60;;
71655;SDS011;59497;48.798;8.816;2022-10-23T06:10:57;2.58;;;1.48;;
71655;SDS011;59497;48.798;8.816;2022-10-23T06:13:22;2.63;;;1.53;;
71655;SDS011;59497;48.798;8.816;2022-10-23T06:15:48;2.95;;;2.03;;
71655;SDS011;59497;48.798;8.816;2022-10-23T06:18:13;3.70;;;1.80;;
71655;SDS011;59497;48.798;8.816;2022-10-23T06:20:39;4.85;;;1.80;;
71655;SDS011;59497;48.798;8.816;2022-10-23T06:23:04;2.00;;;1.43;;
71655;SDS011;59497;48.798;8.816;2022-10-23T06:25:30;2.30;;;1.53;;
71655;SDS011;59497;48.798;8.816;2022-10-23T06:27:55;3.90;;;2.00;;
71655;SDS011;59497;48.798;8.816;2022-10-23T06:30:20;3.60;;;1.90;;
71655;SDS011;59497;48.798;8.816;2022-10-23T06:32:45;2.57;;;1.97;;
71655;SDS011;59497;48.798;8.816;2022-10-23T06:35:10;2.60;;;1.40;;
71655;SDS011;59497;48.798;8.816;2022-10-23T06:37:36;1.80;;;1.40;;
71655;SDS011;59497;48.798;8.816;2022-10-23T06:40:01;3.03;;;1.50;;
71655;SDS011;59497;48.798;8.816;2022-10-23T06:42:26;2.37;;;1.57;;
71655;SDS011;59497;48.798;8.816;2022-10-23T06:44:51;9.83;;;1.50;;
71655;SDS011;59497;48.798;8.816;2022-10-23T06:47:16;5.25;;;1.42;;
71655;SDS011;59497;48.798;8.816;2022-10-23T06:49:41;4.50;;;1.50;;
71655;SDS011;59497;48.798;8.816;2022-10-23T06:52:07;2.25;;;1.33;;
71655;SDS011;59497;48.798;8.816;2022-10-23T06:54:32;1.73;;;1.47;;
71655;SDS011;59497;48.798;8.816;2022-10-23T06:56:57;3.10;;;1.50;;
71655;SDS011;59497;48.798;8.816;2022-10-23T06:59:22;2.63;;;1.33;;
71655;SDS011;59497;48.798;8.816;2022-10-23T07:01:47;1.60;;;1.13;;
71655;SDS011;59497;48.798;8.816;2022-10-23T07:04:13;2.63;;;1.40;;
71655;SDS011;59497;48.798;8.816;2022-10-23T07:06:38;4.50;;;1.47;;
71655;SDS011;59497;48.798;8.816;2022-10-23T07:09:03;1.83;;;1.10;;
71655;SDS011;59497;48.798;8.816;2022-10-23T07:11:29;2.17;;;1.30;;
71655;SDS011;59497;48.798;8.816;2022-10-23T07:13:54;4.43;;;1.55;;
71655;SDS011;59497;48.798;8.816;2022-10-23T07:16:20;3.67;;;1.40;;
71655;SDS011;59497;48.798;8.816;2022-10-23T07:18:46;3.10;;;1.40;;
71655;SDS011;59497;48.798;8.816;2022-10-23T07:21:11;1.57;;;1.20;;
71655;SDS011;59497;48.798;8.816;2022-10-23T07:23:36;1.60;;;1.23;;
71655;SDS011;59497;48.798;8.816;2022-10-23T07:26:02;1.93;;;1.17;;
71655;SDS011;59497;48.798;8.816;2022-10-23T07:28:28;3.17;;;1.48;;
71655;SDS011;59497;48.798;8.816;2022-10-23T07:30:56;2.45;;;1.95;;
71655;SDS011;59497;48.798;8.816;2022-10-23T07:33:21;2.33;;;1.80;;
71655;SDS011;59497;48.798;8.816;2022-10-23T07:35:47;1.90;;;1.40;;
71655;SDS011;59497;48.798;8.816;2022-10-23T07:38:12;4.00;;;1.70;;
71655;SDS011;59497;48.798;8.816;2022-10-23T07:40:37;2.80;;;2.20;;
71655;SDS011;59497;48.798;8.816;2022-10-23T07:43:03;2.40;;;1.73;;
71655;SDS011;59497;48.798;8.816;2022-10-23T07:45:28;8.30;;;6.17;;
71655;SDS011;59497;48.798;8.816;2022-10-23T07:47:53;7.13;;;5.00;;
71655;SDS011;59497;48.798;8.816;2022-10-23T07:50:18;3.97;;;3.58;;
71655;SDS011;59497;48.798;8.816;2022-10-23T07:52:43;2.60;;;2.40;;
71655;SDS011;59497;48.798;8.816;2022-10-23T07:55:08;2.80;;;2.03;;
71655;SDS011;59497;48.798;8.816;2022-10-23T07:57:34;2.13;;;1.17;;
71655;SDS011;59497;48.798;8.816;2022-10-23T07:59:59;1.73;;;1.20;;
71655;SDS011;59497;48.798;8.816;2022-10-23T08:02:24;1.33;;;0.70;;
71655;SDS011;59497;48.798;8.816;2022-10-23T08:04:49;2.53;;;1.53;;
71655;SDS011;59497;48.798;8.816;2022-10-23T08:07:14;2.10;;;1.20;;
71655;SDS011;59497;48.798;8.816;2022-10-23T08:09:40;1.80;;;1.10;;
71655;SDS011;59497;48.798;8.816;2022-10-23T08:12:05;1.38;;;1.15;;
71655;SDS011;59497;48.798;8.816;2022-10-23T08:14:30;2.47;;;1.13;;
71655;SDS011;59497;48.798;8.816;2022-10-23T08:16:55;1.33;;;0.87;;
71655;SDS011;59497;48.798;8.816;2022-10-23T08:19:20;1.63;;;0.90;;
71655;SDS011;59497;48.798;8.816;2022-10-23T08:21:46;0.93;;;0.57;;
71655;SDS011;59497;48.798;8.816;2022-10-23T08:24:11;1.27;;;0.93;;
71655;SDS011;59497;48.798;8.816;2022-10-23T08:26:39;1.55;;;0.77;;
71655;SDS011;59497;48.798;8.816;2022-10-23T08:29:04;0.87;;;0.70;;
71655;SDS011;59497;48.798;8.816;2022-10-23T08:31:29;2.37;;;0.73;;
71655;SDS011;59497;48.798;8.816;2022-10-23T08:33:55;1.00;;;0.70;;
71655;SDS011;59497;48.798;8.816;2022-10-23T08:36:26;4.27;;;0.90;;
71655;SDS011;59497;48.798;8.816;2022-10-23T08:38:53;0.95;;;0.70;;
71655;SDS011;59497;48.798;8.816;2022-10-23T08:43:45;1.50;;;1.00;;
71655;SDS011;59497;48.798;8.816;2022-10-23T08:46:12;1.92;;;0.82;;
71655;SDS011;59497;48.798;8.816;2022-10-23T08:51:05;1.53;;;0.70;;
71655;SDS011;59497;48.798;8.816;2022-10-23T08:53:34;1.08;;;0.65;;
71655;SDS011;59497;48.798;8.816;2022-10-23T08:56:01;0.73;;;0.40;;
71655;SDS011;59497;48.798;8.816;2022-10-23T08:58:39;0.83;;;0.47;;
71655;SDS011;59497;48.798;8.816;2022-10-23T09:01:53;1.85;;;0.35;;
71655;SDS011;59497;48.798;8.816;2022-10-23T09:03:51;0.93;;;0.75;;
71655;SDS011;59497;48.798;8.816;2022-10-23T09:19:14;2.20;;;0.87;;
71655;SDS011;59497;48.798;8.816;2022-10-23T09:21:40;0.60;;;0.60;;
71655;SDS011;59497;48.798;8.816;2022-10-23T09:24:10;2.63;;;0.70;;
71655;SDS011;59497;48.798;8.816;2022-10-23T09:26:35;1.92;;;0.88;;
71655;SDS011;59497;48.798;8.816;2022-10-23T09:29:04;1.03;;;0.30;;
71655;SDS011;59497;48.798;8.816;2022-10-23T09:31:31;0.75;;;0.57;;
71655;SDS011;59497;48.798;8.816;2022-10-23T09:33:57;0.47;;;0.27;;
71655;SDS011;59497;48.798;8.816;2022-10-23T09:36:22;0.40;;;0.28;;
71655;SDS011;59497;48.798;8.816;2022-10-23T09:38:50;1.60;;;0.50;;
71655;SDS011;59497;48.798;8.816;2022-10-23T09:43:41;0.80;;;0.52;;
71655;SDS011;59497;48.798;8.816;2022-10-23T09:46:07;1.10;;;0.60;;
71655;SDS011;59497;48.798;8.816;2022-10-23T09:48:33;0.95;;;0.30;;
71655;SDS011;59497;48.798;8.816;2022-10-23T09:51:00;0.87;;;0.50;;
71655;SDS011;59497;48.798;8.816;2022-10-23T09:53:36;1.15;;;0.43;;
71655;SDS011;59497;48.798;8.816;2022-10-23T09:56:04;0.83;;;0.63;;
71655;SDS011;59497;48.798;8.816;2022-10-23T09:58:35;1.55;;;0.60;;
71655;SDS011;59497;48.798;8.816;2022-10-23T10:01:01;0.95;;;0.50;;
71655;SDS011;59497;48.798;8.816;2022-10-23T10:03:26;1.00;;;0.10;;
71655;SDS011;59497;48.798;8.816;2022-10-23T10:05:53;0.50;;;0.30;;
71655;SDS011;59497;48.798;8.816;2022-10-23T10:08:27;0.55;;;0.55;;
71655;SDS011;59497;48.798;8.816;2022-10-23T10:10:55;0.40;;;0.20;;
71655;SDS011;59497;48.798;8.816;2022-10-23T10:16:15;2.70;;;0.60;;
71655;SDS011;59497;48.798;8.816;2022-10-23T10:21:24;0.77;;;0.73;;
71655;SDS011;59497;48.798;8.816;2022-10-23T10:26:33;0.98;;;0.68;;
71655;SDS011;59497;48.798;8.816;2022-10-23T10:29:18;0.47;;;0.38;;
71655;SDS011;59497;48.798;8.816;2022-10-23T10:36:46;1.17;;;0.50;;
71655;SDS011;59497;48.798;8.816;2022-10-23T10:39:19;0.32;;;0.20;;
71655;SDS011;59497;48.798;8.816;2022-10-23T10:42:07;0.57;;;0.57;;
71655;SDS011;59497;48.798;8.816;2022-10-23T10:44:52;0.20;;;0.13;;
71655;SDS011;59497;48.798;8.816;2022-10-23T10:47:22;0.80;;;0.50;;
71655;SDS011;59497;48.798;8.816;2022-10-23T10:53:02;0.20;;;0.17;;
71655;SDS011;59497;48.798;8.816;2022-10-23T10:55:32;1.85;;;0.57;;
71655;SDS011;59497;48.798;8.816;2022-10-23T10:58:16;1.65;;;0.55;;
71655;SDS011;59497;48.798;8.816;2022-10-23T11:00:43;1.13;;;0.43;;
71655;SDS011;59497;48.798;8.816;2022-10-23T11:05:37;1.83;;;1.00;;
71655;SDS011;59497;48.798;8.816;2022-10-23T11:11:01;1.23;;;0.73;;
71655;SDS011;59497;48.798;8.816;2022-10-23T11:13:32;0.60;;;0.60;;
71655;SDS011;59497;48.798;8.816;2022-10-23T11:16:01;0.73;;;0.50;;
71655;SDS011;59497;48.798;8.816;2022-10-23T11:18:27;2.07;;;1.03;;
71655;SDS011;59497;48.798;8.816;2022-10-23T11:21:02;6.65;;;2.65;;
71655;SDS011;59497;48.798;8.816;2022-10-23T11:28:26;4.50;;;2.20;;
71655;SDS011;59497;48.798;8.816;2022-10-23T11:33:34;1.58;;;1.25;;
71655;SDS011;59497;48.798;8.816;2022-10-23T11:38:53;2.83;;;1.15;;
71655;SDS011;59497;48.798;8.816;2022-10-23T11:41:26;1.67;;;1.00;;
71655;SDS011;59497;48.798;8.816;2022-10-23T11:43:58;1.58;;;1.23;;
71655;SDS011;59497;48.798;8.816;2022-10-23T11:46:31;2.25;;;0.90;;
71655;SDS011;59497;48.798;8.816;2022-10-23T11:48:56;1.17;;;1.07;;
71655;SDS011;59497;48.798;8.816;2022-10-23T11:51:31;1.17;;;0.85;;
71655;SDS011;59497;48.798;8.816;2022-10-23T11:54:30;1.63;;;0.90;;
71655;SDS011;59497;48.798;8.816;2022-10-23T11:59:18;2.30;;;0.98;;
71655;SDS011;59497;48.798;8.816;2022-10-23T12:01:44;1.52;;;0.93;;
71655;SDS011;59497;48.798;8.816;2022-10-23T12:06:42;1.00;;;0.70;;
71655;SDS011;59497;48.798;8.816;2022-10-23T12:09:21;3.75;;;0.63;;
71655;SDS011;59497;48.798;8.816;2022-10-23T12:11:47;1.13;;;1.00;;
71655;SDS011;59497;48.798;8.816;2022-10-23T12:16:52;1.07;;;1.00;;
71655;SDS011;59497;48.798;8.816;2022-10-23T12:19:19;1.33;;;0.53;;
71655;SDS011;59497;48.798;8.816;2022-10-23T12:21:45;1.35;;;1.02;;
71655;SDS011;59497;48.798;8.816;2022-10-23T12:24:26;1.50;;;0.40;;
71655;SDS011;59497;48.798;8.816;2022-10-23T12:32:14;1.27;;;0.90;;
71655;SDS011;59497;48.798;8.816;2022-10-23T12:37:23;2.20;;;0.87;;
71655;SDS011;59497;48.798;8.816;2022-10-23T12:39:50;1.15;;;0.70;;
71655;SDS011;59497;48.798;8.816;2022-10-23T12:42:18;0.85;;;0.75;;
71655;SDS011;59497;48.798;8.816;2022-10-23T12:44:44;3.72;;;0.82;;
71655;SDS011;59497;48.798;8.816;2022-10-23T12:47:10;0.63;;;0.63;;
71655;SDS011;59497;48.798;8.816;2022-10-23T12:49:39;2.38;;;1.02;;
71655;SDS011;59497;48.798;8.816;2022-10-23T12:52:15;1.57;;;1.20;;
71655;SDS011;59497;48.798;8.816;2022-10-23T12:54:41;0.73;;;0.70;;
71655;SDS011;59497;48.798;8.816;2022-10-23T12:57:25;1.10;;;0.93;;
71655;SDS011;59497;48.798;8.816;2022-10-23T12:59:54;2.05;;;0.77;;
71655;SDS011;59497;48.798;8.816;2022-10-23T13:02:26;0.95;;;0.80;;
71655;SDS011;59497;48.798;8.816;2022-10-23T13:04:52;3.50;;;1.10;;
71655;SDS011;59497;48.798;8.816;2022-10-23T13:07:19;1.83;;;1.20;;
71655;SDS011;59497;48.798;8.816;2022-10-23T13:09:45;1.48;;;1.20;;
71655;SDS011;59497;48.798;8.816;2022-10-23T13:12:15;0.70;;;0.60;;
71655;SDS011;59497;48.798;8.816;2022-10-23T13:14:53;1.67;;;0.80;;
71655;SDS011;59497;48.798;8.816;2022-10-23T13:17:19;0.80;;;0.80;;
71655;SDS011;59497;48.798;8.816;2022-10-23T13:19:44;1.00;;;0.83;;
71655;SDS011;59497;48.798;8.816;2022-10-23T13:22:14;1.42;;;0.90;;
71655;SDS011;59497;48.798;8.816;2022-10-23T13:24:42;1.08;;;0.82;;
71655;SDS011;59497;48.798;8.816;2022-10-23T13:27:23;1.97;;;0.50;;
71655;SDS011;59497;48.798;8.816;2022-10-23T13:29:49;1.27;;;0.80;;
71655;SDS011;59497;48.798;8.816;2022-10-23T13:32:21;2.40;;;1.07;;
71655;SDS011;59497;48.798;8.816;2022-10-23T13:34:51;1.65;;;0.80;;
71655;SDS011;59497;48.798;8.816;2022-10-23T13:37:26;0.93;;;0.50;;
71655;SDS011;59497;48.798;8.816;2022-10-23T13:39:59;0.80;;;0.80;;
71655;SDS011;59497;48.798;8.816;2022-10-23T13:42:25;0.80;;;0.60;;
71655;SDS011;59497;48.798;8.816;2022-10-23T13:44:50;2.33;;;1.17;;
71655;SDS011;59497;48.798;8.816;2022-10-23T13:47:15;6.28;;;1.45;;
71655;SDS011;59497;48.798;8.816;2022-10-23T13:49:40;1.47;;;1.20;;
71655;SDS011;59497;48.798;8.816;2022-10-23T13:52:07;1.57;;;1.07;;
71655;SDS011;59497;48.798;8.816;2022-10-23T13:54:33;2.08;;;0.77;;
71655;SDS011;59497;48.798;8.816;2022-10-23T13:56:58;1.37;;;0.70;;
71655;SDS011;59497;48.798;8.816;2022-10-23T13:59:23;2.60;;;0.80;;
71655;SDS011;59497;48.798;8.816;2022-10-23T14:01:49;1.70;;;0.93;;
71655;SDS011;59497;48.798;8.816;2022-10-23T14:04:15;2.43;;;0.73;;
71655;SDS011;59497;48.798;8.816;2022-10-23T14:06:40;2.25;;;0.70;;
71655;SDS011;59497;48.798;8.816;2022-10-23T14:09:06;2.07;;;0.80;;
71655;SDS011;59497;48.798;8.816;2022-10-23T14:11:32;1.98;;;1.23;;
71655;SDS011;59497;48.798;8.816;2022-10-23T14:13:57;1.20;;;0.70;;
71655;SDS011;59497;48.798;8.816;2022-10-23T14:16:23;0.90;;;0.63;;
71655;SDS011;59497;48.798;8.816;2022-10-23T14:18:48;1.90;;;1.20;;
71655;SDS011;59497;48.798;8.816;2022-10-23T14:21:14;1.73;;;1.10;;
71655;SDS011;59497;48.798;8.816;2022-10-23T14:23:40;3.60;;;1.73;;
71655;SDS011;59497;48.798;8.816;2022-10-23T14:26:06;2.15;;;1.10;;
71655;SDS011;59497;48.798;8.816;2022-10-23T14:28:31;2.57;;;1.17;;
71655;SDS011;59497;48.798;8.816;2022-10-23T14:30:56;1.50;;;0.90;;
71655;SDS011;59497;48.798;8.816;2022-10-23T14:33:21;4.00;;;1.70;;
71655;SDS011;59497;48.798;8.816;2022-10-23T14:35:50;2.90;;;1.00;;
71655;SDS011;59497;48.798;8.816;2022-10-23T14:38:15;2.90;;;1.00;;
71655;SDS011;59497;48.798;8.816;2022-10-23T14:40:40;1.97;;;0.80;;
71655;SDS011;59497;48.798;8.816;2022-10-23T14:43:05;2.93;;;0.80;;
71655;SDS011;59497;48.798;8.816;2022-10-23T14:45:31;1.67;;;0.83;;
71655;SDS011;59497;48.798;8.816;2022-10-23T14:47:56;2.17;;;0.70;;
71655;SDS011;59497;48.798;8.816;2022-10-23T14:50:21;2.27;;;0.87;;
71655;SDS011;59497;48.798;8.816;2022-10-23T14:52:46;1.40;;;0.83;;
71655;SDS011;59497;48.798;8.816;2022-10-23T14:55:11;0.90;;;0.68;;
71655;SDS011;59497;48.798;8.816;2022-10-23T14:57:37;2.10;;;1.07;;
71655;SDS011;59497;48.798;8.816;2022-10-23T15:00:03;0.80;;;0.77;;
71655;SDS011;59497;48.798;8.816;2022-10-23T15:02:28;2.20;;;0.97;;
71655;SDS011;59497;48.798;8.816;2022-10-23T15:04:53;1.60;;;0.80;;
71655;SDS011;59497;48.798;8.816;2022-10-23T15:07:18;0.90;;;0.80;;
71655;SDS011;59497;48.798;8.816;2022-10-23T15:09:43;1.33;;;0.97;;
71655;SDS011;59497;48.798;8.816;2022-10-23T15:12:09;2.07;;;1.10;;
71655;SDS011;59497;48.798;8.816;2022-10-23T15:14:34;0.70;;;0.70;;
71655;SDS011;59497;48.798;8.816;2022-10-23T15:16:59;0.90;;;0.80;;
71655;SDS011;59497;48.798;8.816;2022-10-23T15:19:24;2.35;;;1.48;;
71655;SDS011;59497;48.798;8.816;2022-10-23T15:21:49;1.73;;;1.03;;
71655;SDS011;59497;48.798;8.816;2022-10-23T15:24:15;2.78;;;0.73;;
71655;SDS011;59497;48.798;8.816;2022-10-23T15:26:41;1.90;;;0.57;;
71655;SDS011;59497;48.798;8.816;2022-10-23T15:29:07;1.38;;;1.20;;
71655;SDS011;59497;48.798;8.816;2022-10-23T15:34:01;1.77;;;1.40;;
71655;SDS011;59497;48.798;8.816;2022-10-23T15:36:26;0.60;;;0.57;;
71655;SDS011;59497;48.798;8.816;2022-10-23T15:38:51;1.27;;;0.70;;
71655;SDS011;59497;48.798;8.816;2022-10-23T15:41:19;2.03;;;1.10;;
71655;SDS011;59497;48.798;8.816;2022-10-23T15:43:46;1.33;;;1.10;;
71655;SDS011;59497;48.798;8.816;2022-10-23T15:46:11;1.33;;;1.20;;
71655;SDS011;59497;48.798;8.816;2022-10-23T15:48:36;3.30;;;1.03;;
71655;SDS011;59497;48.798;8.816;2022-10-23T15:51:01;1.10;;;0.80;;
71655;SDS011;59497;48.798;8.816;2022-10-23T15:53:27;1.73;;;0.80;;
71655;SDS011;59497;48.798;8.816;2022-10-23T15:55:52;2.38;;;1.05;;
71655;SDS011;59497;48.798;8.816;2022-10-23T15:58:17;1.73;;;0.80;;
71655;SDS011;59497;48.798;8.816;2022-10-23T16:00:42;1.80;;;1.20;;
71655;SDS011;59497;48.798;8.816;2022-10-23T16:03:08;4.27;;;1.77;;
71655;SDS011;59497;48.798;8.816;2022-10-23T16:05:34;5.77;;;3.13;;
71655;SDS011;59497;48.798;8.816;2022-10-23T16:07:59;2.50;;;1.70;;
71655;SDS011;59497;48.798;8.816;2022-10-23T16:10:24;5.63;;;3.67;;
71655;SDS011;59497;48.798;8.816;2022-10-23T16:12:49;4.60;;;2.60;;
71655;SDS011;59497;48.798;8.816;2022-10-23T16:15:15;4.35;;;1.60;;
71655;SDS011;59497;48.798;8.816;2022-10-23T16:17:40;3.35;;;1.10;;
71655;SDS011;59497;48.798;8.816;2022-10-23T16:20:05;1.80;;;1.30;;
71655;SDS011;59497;48.798;8.816;2022-10-23T16:22:30;1.10;;;1.00;;
71655;SDS011;59497;48.798;8.816;2022-10-23T16:24:56;1.40;;;1.10;;
71655;SDS011;59497;48.798;8.816;2022-10-23T16:27:21;1.40;;;0.80;;
71655;SDS011;59497;48.798;8.816;2022-10-23T16:29:46;1.60;;;1.07;;
71655;SDS011;59497;48.798;8.816;2022-10-23T16:32:11;3.57;;;1.10;;
71655;SDS011;59497;48.798;8.816;2022-10-23T16:34:36;1.93;;;1.17;;
71655;SDS011;59497;48.798;8.816;2022-10-23T16:37:01;2.63;;;2.17;;
71655;SDS011;59497;48.798;8.816;2022-10-23T16:39:27;2.80;;;2.17;;